createdAt,value
2019-03-19T00:01:48.000Z,1016.045
2019-03-19T00:11:48.000Z,1016.029
2019-03-19T00:21:50.000Z,1015.997
2019-03-19T00:31:48.000Z,1016.175
2019-03-19T00:41:50.000Z,1016.104
2019-03-19T00:51:48.000Z,1016.254
2019-03-19T01:01:49.000Z,1016.287
2019-03-19T01:11:48.000Z,1016.447
2019-03-19T01:21:48.000Z,1016.465
2019-03-19T01:31:48.000Z,1016.467
2019-03-19T01:41:48.000Z,1016.505
2019-03-19T01:51:48.000Z,1016.558
2019-03-19T02:01:48.000Z,1016.532
2019-03-19T02:11:48.000Z,1016.602
2019-03-19T02:21:48.000Z,1016.678
2019-03-19T02:31:48.000Z,1016.736
2019-03-19T02:41:48.000Z,1016.922
2019-03-19T02:51:48.000Z,1016.967
2019-03-19T03:01:48.000Z,1017.037
2019-03-19T03:11:48.000Z,1017.214
2019-03-19T03:21:48.000Z,1017.208
2019-03-19T03:31:48.000Z,1017.234
2019-03-19T03:41:48.000Z,1017.228
2019-03-19T03:51:48.000Z,1017.264
2019-03-19T04:01:48.000Z,1017.389
2019-03-19T04:11:48.000Z,1017.557
2019-03-19T04:21:48.000Z,1017.74
2019-03-19T04:31:48.000Z,1017.83
2019-03-19T04:41:48.000Z,1017.846
2019-03-19T04:51:48.000Z,1017.947
2019-03-19T05:01:48.000Z,1018.007
2019-03-19T05:11:48.000Z,1018.03
2019-03-19T05:21:48.000Z,1018.021
2019-03-19T05:31:48.000Z,1018.307
2019-03-19T05:41:48.000Z,1018.31
2019-03-19T05:51:49.000Z,1018.422
2019-03-19T06:01:48.000Z,1018.515
2019-03-19T06:11:48.000Z,1018.629
2019-03-19T06:21:48.000Z,1018.786
2019-03-19T06:31:48.000Z,1018.977
2019-03-19T06:41:48.000Z,1019.126
2019-03-19T06:51:51.000Z,1019.183
2019-03-19T07:01:49.000Z,1019.124
2019-03-19T07:11:49.000Z,1019.22
2019-03-19T07:21:49.000Z,1019.346
2019-03-19T07:31:49.000Z,1019.463
2019-03-19T07:41:49.000Z,1019.602
2019-03-19T07:51:49.000Z,1019.698
2019-03-19T08:01:49.000Z,1019.73
2019-03-19T08:11:49.000Z,1019.918
2019-03-19T08:21:49.000Z,1020.058
2019-03-19T08:31:50.000Z,1020.137
2019-03-19T08:41:49.000Z,1020.154
2019-03-19T08:51:49.000Z,1020.233
2019-03-19T09:01:49.000Z,1020.326
2019-03-19T09:11:49.000Z,1020.382
2019-03-19T09:21:49.000Z,1020.358
2019-03-19T09:31:49.000Z,1020.38
2019-03-19T09:41:49.000Z,1020.351
2019-03-19T09:51:49.000Z,1020.346
2019-03-19T10:01:49.000Z,1020.407
2019-03-19T10:11:49.000Z,1020.455
2019-03-19T10:21:49.000Z,1020.467
2019-03-19T10:31:49.000Z,1020.425
2019-03-19T10:41:49.000Z,1020.496
2019-03-19T10:51:49.000Z,1020.691
2019-03-19T11:01:49.000Z,1020.747
2019-03-19T11:11:49.000Z,1020.769
2019-03-19T11:21:49.000Z,1020.808
2019-03-19T11:31:49.000Z,1020.752
2019-03-19T11:41:49.000Z,1020.707
2019-03-19T11:51:49.000Z,1020.699
2019-03-19T12:11:49.000Z,1020.769
2019-03-19T12:21:49.000Z,1020.731
2019-03-19T12:31:49.000Z,1020.814
2019-03-19T12:41:49.000Z,1020.726
2019-03-19T12:51:49.000Z,1020.722
2019-03-19T13:01:49.000Z,1020.783
2019-03-19T13:11:49.000Z,1020.736
2019-03-19T13:21:49.000Z,1020.652
2019-03-19T13:31:49.000Z,1020.7
2019-03-19T13:41:49.000Z,1020.622
2019-03-19T13:51:49.000Z,1020.604
2019-03-19T14:01:49.000Z,1020.676
2019-03-19T14:11:49.000Z,1020.668
2019-03-19T14:21:49.000Z,1020.712
2019-03-19T14:31:49.000Z,1020.717
2019-03-19T14:41:49.000Z,1020.722
2019-03-19T14:51:49.000Z,1020.818
2019-03-19T15:01:49.000Z,1020.89
2019-03-19T15:11:50.000Z,1020.848
2019-03-19T15:21:50.000Z,1020.751
2019-03-19T15:31:50.000Z,1020.768
2019-03-19T15:41:50.000Z,1020.76
2019-03-19T15:51:50.000Z,1020.697
2019-03-19T16:01:50.000Z,1020.756
2019-03-19T16:11:50.000Z,1020.801
2019-03-19T16:21:50.000Z,1020.788
2019-03-19T16:31:51.000Z,1020.854
2019-03-19T16:41:50.000Z,1020.899
2019-03-19T16:51:50.000Z,1020.983
2019-03-19T17:01:51.000Z,1021.1
2019-03-19T17:11:51.000Z,1021.246
2019-03-19T17:21:50.000Z,1021.271
2019-03-19T17:31:50.000Z,1021.378
2019-03-19T17:41:50.000Z,1021.493
2019-03-19T17:51:50.000Z,1021.544
2019-03-19T18:01:50.000Z,1021.548
2019-03-19T18:11:51.000Z,1021.557
2019-03-19T18:21:50.000Z,1021.557
2019-03-19T18:31:50.000Z,1021.7
2019-03-19T18:41:50.000Z,1021.806
2019-03-19T18:51:52.000Z,1021.887
2019-03-19T19:01:53.000Z,1021.993
2019-03-19T19:11:50.000Z,1022.122
2019-03-19T19:21:50.000Z,1022.287
2019-03-19T19:31:50.000Z,1022.449
2019-03-19T19:41:50.000Z,1022.506
2019-03-19T19:51:50.000Z,1022.578
2019-03-19T20:01:50.000Z,1022.667
2019-03-19T20:11:51.000Z,1022.844
2019-03-19T20:21:50.000Z,1022.956
2019-03-19T20:31:50.000Z,1022.972
2019-03-19T20:41:51.000Z,1022.911
2019-03-19T20:51:50.000Z,1022.914
2019-03-19T21:01:50.000Z,1023.171
2019-03-19T21:11:50.000Z,1023.257
2019-03-19T21:21:50.000Z,1023.409
2019-03-19T21:31:50.000Z,1023.401
2019-03-19T21:41:50.000Z,1023.339
2019-03-19T21:51:50.000Z,1023.277
2019-03-19T22:01:50.000Z,1023.212
2019-03-19T22:11:50.000Z,1023.184
2019-03-19T22:21:50.000Z,1023.199
2019-03-19T22:31:50.000Z,1023.243
2019-03-19T22:41:50.000Z,1023.237
2019-03-19T22:51:51.000Z,1023.302
2019-03-19T23:01:50.000Z,1023.356
2019-03-19T23:11:50.000Z,1023.294
2019-03-19T23:21:51.000Z,1023.29
2019-03-19T23:31:51.000Z,1023.338
2019-03-19T23:41:51.000Z,1023.423
2019-03-19T23:51:51.000Z,1023.376
